Yabucoa, Puerto Rico
Current Conditions -  °F | °C
As of 3:15 PM on Thursday 30 Oct 2014 (Local Time) from TJNR Reporting Station
Overcast Overcast  
Wind Chill: 84°   Ceiling: 3200
Heat Index: 93°   Visibility: 10mi
Dew Point: 76°   Wind: 9mph
Humidity: 76%   Direction: 190°S
Pressure: 29.8"   Gusts: NA
Location:  18.05°N, 65.88°W
Report Text: TJNR 301915Z AUTO 19008KT 10SM FEW021 BKN032 OVC043 29/24 A2980 RMK AO2 T02890244 $
Loading
Personal Weather Stations






























Interactive Weather Map
Tropical Storm Tracking
New forecast layout! Learn more

10-Day Weather Forecast

Advertisements
Track Severe Weather on mobile